Time;durP1;ratioP1;P1;durP2;ratioP2;P2;SDS_P1;SDS_P2;PMS_P1;PMS_P2;Temp;Humidity;BMP_temperature;BMP_pressure;BME280_temperature;BME280_humidity;BME280_pressure;Samples;Min_cycle;Max_cycle;Signal;HPM_P1;HPM_P2
2022/01/09 00:00:12;;;;;;;46.10;21.90;;;;;;;-0.98;74.09;98899.48;207849;1316;139608;-65
2022/01/09 00:05:36;;;;;;;43.40;22.70;;;;;;;-1.04;73.96;98897.04;207851;1317;140922;-65
2022/01/09 00:10:47;;;;;;;49.20;25.00;;;;;;;-1.02;73.91;98889.46;207535;1316;139851;-65
2022/01/09 00:15:51;;;;;;;48.50;24.00;;;;;;;-1.05;74.11;98887.56;207156;1316;142445;-65
2022/01/09 00:20:55;;;;;;;43.40;24.20;;;;;;;-1.08;74.03;98881.29;206751;1316;140566;-65
2022/01/09 00:26:06;;;;;;;40.10;22.00;;;;;;;-1.14;74.20;98881.48;206958;1316;139693;-66
2022/01/09 00:31:11;;;;;;;46.30;20.80;;;;;;;-1.21;74.29;98877.09;207013;1315;140755;-65
2022/01/09 00:36:30;;;;;;;37.50;19.10;;;;;;;-1.31;74.23;98861.29;207088;1318;139987;-65
2022/01/09 00:41:35;;;;;;;41.30;21.20;;;;;;;-1.39;73.90;98853.98;208276;1316;141290;-66
2022/01/09 00:46:43;;;;;;;45.00;21.20;;;;;;;-1.45;74.18;98848.88;207128;1317;140138;-64
2022/01/09 00:51:51;;;;;;;38.90;20.10;;;;;;;-1.47;74.41;98847.39;207682;1316;139575;-65
2022/01/09 00:56:53;;;;;;;43.40;21.60;;;;;;;-1.53;74.41;98832.84;208022;1316;141116;-65
2022/01/09 01:02:15;;;;;;;40.50;20.70;;;;;;;-1.59;74.39;98820.85;207758;1316;141430;-65
2022/01/09 01:07:23;;;;;;;42.10;21.00;;;;;;;-1.70;74.38;98815.59;207180;1316;140276;-65
2022/01/09 01:12:35;;;;;;;38.20;19.50;;;;;;;-1.80;74.46;98805.17;207702;1316;140793;-65
2022/01/09 01:17:40;;;;;;;41.10;22.50;;;;;;;-1.92;74.51;98798.87;208161;1315;140730;-65
2022/01/09 01:22:44;;;;;;;41.70;20.80;;;;;;;-1.99;74.30;98800.20;208259;1318;142145;-64
2022/01/09 01:27:47;;;;;;;37.50;21.60;;;;;;;-2.06;74.35;98783.45;209325;1316;140955;-65
2022/01/09 01:33:00;;;;;;;40.50;23.70;;;;;;;-2.20;74.32;98778.17;209013;1320;140128;-65
2022/01/09 01:38:08;;;;;;;47.40;23.10;;;;;;;-2.30;74.63;98772.66;208934;1318;140651;-67
2022/01/09 01:43:12;;;;;;;52.50;26.30;;;;;;;-2.34;74.77;98766.56;208673;1315;140255;-68
2022/01/09 01:48:18;;;;;;;49.50;25.20;;;;;;;-2.32;74.84;98761.55;209322;1319;140377;-67
2022/01/09 01:53:22;;;;;;;57.90;26.40;;;;;;;-2.29;74.54;98759.64;208613;1313;140669;-65
2022/01/09 01:58:31;;;;;;;47.90;26.10;;;;;;;-2.34;74.66;98757.17;207720;1316;140817;-65
2022/01/09 02:03:43;;;;;;;48.50;23.50;;;;;;;-2.43;74.73;98756.71;207422;1316;140129;-65
2022/01/09 02:08:47;;;;;;;62.20;34.40;;;;;;;-2.56;74.63;98748.47;207611;1315;140788;-65
2022/01/09 02:13:51;;;;;;;51.10;25.50;;;;;;;-2.65;74.60;98746.19;207220;1316;140697;-64
2022/01/09 02:19:03;;;;;;;50.10;24.20;;;;;;;-2.76;74.71;98741.70;207916;1318;141714;-65
2022/01/09 02:24:22;;;;;;;54.40;25.60;;;;;;;-2.89;74.75;98734.96;206733;1315;140613;-64
2022/01/09 02:29:26;;;;;;;48.80;25.90;;;;;;;-3.02;75.08;98732.23;206933;1318;139739;-64
2022/01/09 02:34:28;;;;;;;70.30;31.50;;;;;;;-3.09;75.50;98731.27;207490;1316;139877;-64
2022/01/09 02:39:34;;;;;;;65.10;26.90;;;;;;;-3.04;75.47;98726.31;208014;1316;140068;-64
2022/01/09 02:44:42;;;;;;;51.30;28.40;;;;;;;-3.01;75.59;98717.69;207312;1316;141094;-64
2022/01/09 02:49:50;;;;;;;;;;;;;;;-3.04;75.52;98709.82;207706;1316;139833;-64
2022/01/09 02:55:14;;;;;;;38.60;22.50;;;;;;;-3.11;75.68;98703.36;207749;1315;125861;-65
2022/01/09 03:00:27;;;;;;;62.30;31.50;;;;;;;-3.20;75.81;98698.45;206864;1316;141006;-64
2022/01/09 03:05:39;;;;;;;64.70;30.60;;;;;;;-3.25;75.57;98691.74;207834;1317;141744;-64
2022/01/09 03:10:41;;;;;;;61.60;29.70;;;;;;;-3.25;75.76;98687.82;208378;1317;140334;-64
2022/01/09 03:15:44;;;;;;;53.80;28.60;;;;;;;-3.26;75.89;98682.95;207325;1319;140105;-64
2022/01/09 03:20:50;;;;;;;46.10;23.00;;;;;;;-3.33;75.96;98678.20;206821;1318;140420;-64
2022/01/09 03:25:54;;;;;;;62.70;29.20;;;;;;;-3.41;75.73;98673.05;208473;1318;141150;-64
2022/01/09 03:31:00;;;;;;;55.30;29.20;;;;;;;-3.43;75.73;98672.51;209507;1313;140796;-65
2022/01/09 03:36:04;;;;;;;56.80;31.90;;;;;;;-3.42;75.92;98667.59;207141;1316;141747;-64
2022/01/09 03:41:07;;;;;;;52.00;29.20;;;;;;;-3.47;75.96;98663.77;207028;1317;139696;-64
2022/01/09 03:46:23;;;;;;;;;;;;;;;;;;;;;
2022/01/09 03:51:37;;;;;;;52.10;27.00;;;;;;;-3.62;76.03;98650.03;208827;1317;141901;-64
2022/01/09 03:56:44;;;;;;;57.50;29.40;;;;;;;-3.67;76.06;98643.17;208787;1317;142767;-64
2022/01/09 04:02:01;;;;;;;67.90;30.20;;;;;;;-3.67;76.15;98641.17;208914;1317;140440;-65
2022/01/09 04:07:05;;;;;;;57.60;28.70;;;;;;;-3.64;76.24;98644.05;206827;1312;140317;-66
2022/01/09 04:12:31;;;;;;;60.40;25.10;;;;;;;-3.68;76.07;98640.08;208078;1315;140036;-66
2022/01/09 04:17:54;;;;;;;56.70;28.20;;;;;;;-3.77;76.20;98633.84;207032;1318;140831;-66
2022/01/09 04:23:05;;;;;;;64.60;33.30;;;;;;;-3.84;76.12;98624.65;208827;1318;141234;-67
2022/01/09 04:28:10;;;;;;;70.90;35.00;;;;;;;-3.87;76.20;98612.50;207491;1317;140190;-66
2022/01/09 04:33:33;;;;;;;60.70;32.80;;;;;;;-3.86;76.59;98602.02;207305;1316;210967;-66
2022/01/09 04:38:35;;;;;;;51.40;25.30;;;;;;;-3.86;76.75;98598.46;207754;1317;140158;-67
2022/01/09 04:43:40;;;;;;;56.50;27.40;;;;;;;-3.87;76.97;98600.71;207793;1318;140730;-66
2022/01/09 04:48:48;;;;;;;63.60;28.50;;;;;;;-3.87;76.88;98598.14;207933;1316;160137;-67
2022/01/09 04:53:55;;;;;;;75.70;31.30;;;;;;;-3.82;76.90;98595.30;207655;1315;140618;-67
2022/01/09 04:59:06;;;;;;;61.40;29.70;;;;;;;-3.76;76.90;98591.36;208430;1316;221774;-64
2022/01/09 05:04:13;;;;;;;50.70;25.20;;;;;;;-3.76;77.07;98579.15;208910;1317;140659;-65
2022/01/09 05:09:16;;;;;;;39.30;17.70;;;;;;;-3.76;77.03;98586.48;206776;1315;139888;-64
2022/01/09 05:14:24;;;;;;;59.60;28.90;;;;;;;-3.74;77.13;98578.14;208205;1315;140213;-64
2022/01/09 05:19:29;;;;;;;55.70;27.70;;;;;;;-3.65;77.21;98576.70;208229;1316;140835;-64
2022/01/09 05:24:35;;;;;;;56.80;28.30;;;;;;;-3.57;77.26;98579.77;207407;1316;141432;-63
2022/01/09 05:29:39;;;;;;;58.10;30.90;;;;;;;-3.54;77.17;98586.20;206966;1315;141788;-63
2022/01/09 05:34:43;;;;;;;63.90;27.40;;;;;;;-3.52;77.38;98590.06;208784;1316;140004;-64
2022/01/09 05:39:47;;;;;;;66.70;33.00;;;;;;;-3.58;77.12;98591.77;209036;1316;141371;-64
2022/01/09 05:44:54;;;;;;;54.30;28.30;;;;;;;-3.60;76.95;98601.83;208625;1317;141231;-63
2022/01/09 05:49:59;;;;;;;56.80;27.30;;;;;;;-3.56;77.03;98600.89;208401;1315;164140;-64
2022/01/09 05:55:04;;;;;;;53.90;26.80;;;;;;;-3.55;77.08;98600.21;207619;1319;572437;-64
2022/01/09 06:00:11;;;;;;;47.70;27.90;;;;;;;-3.58;77.26;98604.13;208143;1318;142410;-63
2022/01/09 06:05:14;;;;;;;57.20;26.60;;;;;;;-3.57;77.37;98609.85;209219;1316;163401;-64
2022/01/09 06:10:17;;;;;;;52.80;26.40;;;;;;;-3.58;77.28;98612.53;208924;1319;140992;-64
2022/01/09 06:15:20;;;;;;;58.00;27.00;;;;;;;-3.53;77.06;98613.45;207771;1316;142115;-64
2022/01/09 06:20:25;;;;;;;53.90;30.70;;;;;;;-3.52;76.89;98612.92;207985;1317;140344;-64
2022/01/09 06:25:28;;;;;;;49.10;28.50;;;;;;;-3.55;77.20;98615.02;207907;1316;141898;-64
2022/01/09 06:30:37;;;;;;;45.90;26.70;;;;;;;-3.57;77.12;98615.79;208898;1319;139687;-64
2022/01/09 06:35:40;;;;;;;58.40;27.10;;;;;;;-3.62;77.15;98628.08;207835;1318;140854;-67
2022/01/09 06:40:43;;;;;;;63.60;29.70;;;;;;;-3.63;77.11;98638.79;208313;1316;141151;-66
2022/01/09 06:45:47;;;;;;;59.10;30.20;;;;;;;-3.63;77.35;98642.84;207615;1312;141335;-67
2022/01/09 06:50:53;;;;;;;69.30;27.70;;;;;;;-3.64;77.44;98646.06;206800;1317;140811;-66
2022/01/09 06:55:57;;;;;;;67.50;32.70;;;;;;;-3.62;77.36;98642.92;207250;1316;144637;-66
2022/01/09 07:01:00;;;;;;;55.20;28.10;;;;;;;-3.57;77.44;98644.40;207602;1316;141683;-70
2022/01/09 07:06:06;;;;;;;58.60;29.60;;;;;;;-3.56;77.37;98643.06;207513;1316;141194;-67
2022/01/09 07:11:09;;;;;;;49.60;27.70;;;;;;;-3.58;77.48;98641.29;207263;1316;140757;-66
2022/01/09 07:16:12;;;;;;;43.10;20.30;;;;;;;-3.60;77.78;98638.34;208691;1318;142191;-69
2022/01/09 07:21:25;;;;;;;;;;;;;;;;;;;;;
2022/01/09 07:26:29;;;;;;;65.10;29.70;;;;;;;-3.48;77.68;98639.55;207482;1316;142350;-71
2022/01/09 07:31:33;;;;;;;59.50;30.40;;;;;;;-3.37;77.92;98636.77;207047;1315;140993;-70
2022/01/09 07:36:39;;;;;;;40.80;21.60;;;;;;;-3.31;77.89;98634.66;207774;1317;210521;-72
2022/01/09 07:41:43;;;;;;;55.10;28.00;;;;;;;-3.25;77.96;98631.61;208151;1318;140750;-69
2022/01/09 07:46:55;;;;;;;46.20;21.80;;;;;;;-3.18;78.01;98626.28;207006;1318;141062;-67
2022/01/09 07:52:00;;;;;;;64.30;34.10;;;;;;;-3.13;77.87;98625.50;209237;1316;141460;-67
2022/01/09 07:57:04;;;;;;;65.60;31.00;;;;;;;-3.03;77.91;98628.66;209043;1318;141034;-71
2022/01/09 08:02:11;;;;;;;57.50;28.50;;;;;;;-2.89;77.78;98626.48;209115;1316;141402;-72
2022/01/09 08:07:18;;;;;;;50.30;27.70;;;;;;;-2.81;77.67;98626.90;208971;1318;143148;-71
2022/01/09 08:12:22;;;;;;;53.40;28.90;;;;;;;-2.75;77.55;98626.63;208494;1317;220588;-70
2022/01/09 08:17:25;;;;;;;58.10;28.00;;;;;;;-2.66;77.84;98630.89;208833;1319;141175;-71
2022/01/09 08:22:29;;;;;;;60.70;31.20;;;;;;;-2.55;77.65;98633.02;208451;1316;140859;-71
2022/01/09 08:27:43;;;;;;;56.50;29.00;;;;;;;-2.40;77.68;98630.80;208593;1316;142355;-72
2022/01/09 08:32:49;;;;;;;50.70;25.00;;;;;;;-2.23;77.99;98629.50;207087;1316;140125;-75
2022/01/09 08:37:55;;;;;;;54.20;29.30;;;;;;;-2.09;78.05;98632.67;208134;1317;141159;-74
2022/01/09 08:43:01;;;;;;;49.50;26.70;;;;;;;-1.94;78.15;98638.03;207379;1316;140464;-67
2022/01/09 08:48:07;;;;;;;50.00;25.40;;;;;;;-1.80;78.27;98639.32;206839;1315;140739;-69
2022/01/09 08:53:15;;;;;;;61.80;29.10;;;;;;;-1.67;78.26;98632.41;207711;1319;140249;-69
2022/01/09 08:58:19;;;;;;;60.50;30.00;;;;;;;-1.51;78.18;98632.06;206969;1318;141025;-67
2022/01/09 09:03:40;;;;;;;;;;;;;;;;;;;;;
2022/01/09 09:09:19;;;;;;;42.30;24.40;;;;;;;-1.22;77.92;98626.73;207448;1315;140468;-70
2022/01/09 09:14:23;;;;;;;44.70;21.50;;;;;;;-1.13;77.98;98620.22;207783;1316;204396;-67
2022/01/09 09:19:29;;;;;;;55.80;28.80;;;;;;;-1.04;77.65;98611.39;208129;1316;140013;-66
2022/01/09 09:24:41;;;;;;;61.90;29.70;;;;;;;-0.90;77.51;98615.64;207685;1315;141007;-66
2022/01/09 09:29:56;;;;;;;53.60;29.30;;;;;;;-0.76;77.55;98613.94;206849;1316;140517;-67
2022/01/09 09:35:04;;;;;;;39.80;21.80;;;;;;;-0.63;77.37;98609.70;207709;1316;140773;-68
2022/01/09 09:40:08;;;;;;;49.00;28.20;;;;;;;-0.58;77.11;98600.27;208095;1316;141080;-68
2022/01/09 09:45:12;;;;;;;52.20;23.50;;;;;;;-0.44;77.01;98595.73;207250;1321;161617;-66
2022/01/09 09:50:21;;;;;;;59.50;31.40;;;;;;;-0.33;76.90;98590.53;207681;1318;140594;-66
2022/01/09 09:55:24;;;;;;;49.00;27.00;;;;;;;-0.23;76.87;98589.15;206898;1318;139646;-66
2022/01/09 10:00:43;;;;;;;51.60;28.30;;;;;;;-0.13;76.74;98587.52;207685;1313;141429;-65
2022/01/09 10:06:01;;;;;;;51.90;27.80;;;;;;;-0.01;76.47;98583.30;208041;1316;140356;-69
2022/01/09 10:11:26;;;;;;;63.10;29.40;;;;;;;0.18;76.40;98575.63;209150;1316;140022;-68
2022/01/09 10:16:32;;;;;;;37.70;21.70;;;;;;;0.37;76.43;98577.58;208141;1315;141070;-72
2022/01/09 10:21:41;;;;;;;43.30;25.20;;;;;;;0.46;76.05;98570.88;209524;1317;140953;-73
2022/01/09 10:27:19;;;;;;;53.20;24.50;;;;;;;0.57;75.88;98565.17;209214;1315;143274;-73
2022/01/09 10:32:26;;;;;;;43.70;25.20;;;;;;;0.72;75.44;98560.79;208843;1315;141315;-73
2022/01/09 10:37:37;;;;;;;;;;;;;;;0.87;75.25;98560.05;208374;1318;140002;-72
2022/01/09 10:42:42;;;;;;;34.00;21.80;;;;;;;0.96;75.36;98554.59;208659;1317;126413;-71
2022/01/09 10:47:49;;;;;;;42.80;24.10;;;;;;;1.08;75.14;98551.16;207346;1318;139635;-73
2022/01/09 10:53:12;;;;;;;41.60;23.40;;;;;;;1.21;74.88;98538.40;206732;1316;141414;-70
2022/01/09 10:58:27;;;;;;;37.50;21.50;;;;;;;1.27;74.95;98534.73;208789;1317;140045;-69
2022/01/09 11:03:40;;;;;;;32.90;18.30;;;;;;;1.30;74.50;98532.07;207472;1316;141158;-69
2022/01/09 11:08:48;;;;;;;40.10;21.20;;;;;;;1.38;74.62;98530.98;207754;1318;141186;-68
2022/01/09 11:13:55;;;;;;;;;;;;;;;1.47;74.49;98530.28;208277;1316;140642;-69
2022/01/09 11:19:15;;;;;;;40.20;22.10;;;;;;;1.50;74.29;98527.61;207861;1316;224796;-67
2022/01/09 11:24:50;;;;;;;39.50;22.20;;;;;;;1.57;74.30;98528.90;207043;1316;140551;-66
2022/01/09 11:30:31;;;;;;;46.10;22.30;;;;;;;1.68;73.89;98526.17;207090;1316;141336;-65
2022/01/09 11:35:46;;;;;;;35.70;18.40;;;;;;;1.79;74.02;98515.67;207737;1316;141078;-66
2022/01/09 11:40:49;;;;;;;31.20;17.20;;;;;;;1.86;73.50;98519.06;207484;1316;140478;-67
2022/01/09 11:46:00;;;;;;;37.50;22.50;;;;;;;1.95;73.31;98517.77;208296;1318;140360;-66
2022/01/09 11:51:06;;;;;;;34.10;17.20;;;;;;;2.11;73.00;98527.05;208587;1317;140299;-66
2022/01/09 11:56:34;;;;;;;40.10;23.70;;;;;;;2.22;72.80;98521.45;208622;1316;140717;-65
2022/01/09 12:01:38;;;;;;;;;;;;;;;2.32;72.85;98524.80;206822;1318;142919;-65
2022/01/09 12:06:49;;;;;;;43.50;22.40;;;;;;;2.35;72.44;98523.17;209234;1314;126160;-66
2022/01/09 12:12:37;;;;;;;32.20;19.90;;;;;;;2.42;72.52;98523.09;206861;1318;140641;-66
2022/01/09 12:17:48;;;;;;;39.50;22.10;;;;;;;2.47;71.85;98523.45;209167;1316;140213;-65
2022/01/09 12:23:00;;;;;;;35.30;21.00;;;;;;;2.47;71.44;98525.83;208880;1316;140464;-66
2022/01/09 12:28:18;;;;;;;44.50;25.70;;;;;;;2.48;71.45;98519.39;208782;1316;141456;-66
2022/01/09 12:33:32;;;;;;;38.50;21.40;;;;;;;2.49;71.55;98519.27;208668;1322;140796;-66
2022/01/09 12:38:37;;;;;;;36.00;22.20;;;;;;;2.56;71.19;98522.34;209317;1316;142662;-65
2022/01/09 12:43:41;;;;;;;47.70;26.10;;;;;;;2.60;71.05;98522.64;207987;1315;140851;-69
2022/01/09 12:49:03;;;;;;;43.20;23.60;;;;;;;2.61;70.90;98524.25;208003;1321;141174;-69
2022/01/09 12:54:10;;;;;;;56.40;29.60;;;;;;;2.60;70.44;98527.78;207796;1318;141679;-68
2022/01/09 12:59:18;;;;;;;37.10;22.50;;;;;;;2.64;70.58;98526.82;207058;1318;141303;-67
2022/01/09 13:04:34;;;;;;;45.00;24.40;;;;;;;2.59;70.46;98522.45;208171;1319;141118;-67
2022/01/09 13:09:40;;;;;;;44.10;23.70;;;;;;;2.56;70.52;98526.79;207752;1318;141192;-67
2022/01/09 13:14:46;;;;;;;35.20;22.20;;;;;;;2.55;70.52;98539.26;208539;1316;142804;-67
2022/01/09 13:19:51;;;;;;;47.80;26.10;;;;;;;2.51;69.85;98551.70;206903;1316;163680;-67
2022/01/09 13:25:11;;;;;;;50.10;25.10;;;;;;;2.46;69.95;98555.10;207095;1316;140537;-66
2022/01/09 13:30:14;;;;;;;36.90;21.20;;;;;;;2.39;69.99;98563.89;207415;1316;140995;-65
2022/01/09 13:35:24;;;;;;;40.40;21.70;;;;;;;2.32;69.92;98571.52;207541;1315;142285;-65
2022/01/09 13:40:49;;;;;;;46.90;25.80;;;;;;;2.24;70.01;98573.58;207845;1320;140627;-65
2022/01/09 13:46:08;;;;;;;42.60;22.60;;;;;;;2.12;69.78;98574.89;207160;1316;140837;-67
2022/01/09 13:51:12;;;;;;;47.80;25.10;;;;;;;1.94;70.00;98582.11;207940;1316;234490;-64
2022/01/09 13:56:25;;;;;;;59.70;29.50;;;;;;;1.79;70.17;98590.86;206854;1320;440449;-64
2022/01/09 14:01:59;;;;;;;53.50;28.40;;;;;;;1.71;69.78;98591.19;206751;1319;141246;-65
2022/01/09 14:07:07;;;;;;;49.80;27.20;;;;;;;1.58;69.72;98592.67;208018;1317;140768;-65
2022/01/09 14:12:17;;;;;;;64.30;33.70;;;;;;;1.43;69.66;98592.98;206865;1317;141274;-64
2022/01/09 14:17:25;;;;;;;54.70;29.20;;;;;;;1.31;69.86;98595.33;208646;1319;142060;-66
2022/01/09 14:22:58;;;;;;;55.90;29.40;;;;;;;1.17;70.03;98601.36;207712;1314;143075;-68
2022/01/09 14:28:11;;;;;;;59.00;28.80;;;;;;;1.00;70.34;98602.91;206630;1316;163397;-69
2022/01/09 14:33:21;;;;;;;76.80;34.50;;;;;;;0.86;70.14;98607.23;208766;1316;140018;-65
2022/01/09 14:38:27;;;;;;;64.10;32.60;;;;;;;0.78;70.30;98616.50;208100;1315;141460;-68
2022/01/09 14:43:32;;;;;;;71.20;33.40;;;;;;;0.71;70.25;98620.47;208599;1320;142238;-69
2022/01/09 14:48:44;;;;;;;68.90;34.20;;;;;;;0.64;70.42;98625.45;208510;1322;141373;-70
2022/01/09 14:53:59;;;;;;;52.20;27.50;;;;;;;0.54;70.45;98625.81;208065;1321;140164;-66
2022/01/09 14:59:02;;;;;;;61.90;30.90;;;;;;;0.46;70.64;98629.44;209150;1316;140397;-67
2022/01/09 15:04:08;;;;;;;63.20;31.90;;;;;;;0.36;70.52;98635.52;209261;1316;140428;-69
2022/01/09 15:09:11;;;;;;;54.70;25.60;;;;;;;0.28;70.57;98634.46;207133;1316;140854;-67
2022/01/09 15:14:25;;;;;;;;;;;;;;;;;;;;;
2022/01/09 15:19:31;;;;;;;69.80;34.30;;;;;;;0.10;70.93;98642.08;208304;1317;140530;-70
2022/01/09 15:24:42;;;;;;;56.10;30.70;;;;;;;0.02;70.84;98646.63;206986;1316;141440;-67
2022/01/09 15:29:46;;;;;;;51.50;30.60;;;;;;;-0.02;71.04;98652.79;207247;1316;141297;-67
2022/01/09 15:34:52;;;;;;;51.00;29.60;;;;;;;-0.09;70.99;98659.40;206462;1316;140302;-66
2022/01/09 15:39:55;;;;;;;62.70;31.50;;;;;;;-0.16;71.04;98665.98;207341;1316;141568;-68
2022/01/09 15:45:00;;;;;;;62.60;30.00;;;;;;;-0.26;71.19;98671.36;206829;1316;140352;-67
2022/01/09 15:50:06;;;;;;;58.40;33.40;;;;;;;-0.35;71.27;98675.34;207174;1316;140270;-66
2022/01/09 15:55:09;;;;;;;53.50;27.30;;;;;;;-0.46;71.35;98678.89;207710;1318;142264;-67
2022/01/09 16:00:14;;;;;;;64.20;30.30;;;;;;;-0.52;71.48;98683.34;208322;1316;142282;-67
2022/01/09 16:05:18;;;;;;;86.70;38.50;;;;;;;-0.50;71.31;98688.19;206706;1316;143196;-66
2022/01/09 16:10:21;;;;;;;61.90;33.90;;;;;;;-0.52;71.48;98693.93;207517;1315;140999;-67
2022/01/09 16:15:27;;;;;;;64.90;32.40;;;;;;;-0.55;71.67;98695.88;207943;1318;141355;-66
2022/01/09 16:20:35;;;;;;;74.10;33.60;;;;;;;-0.60;71.78;98701.11;207526;1318;141083;-66
2022/01/09 16:25:39;;;;;;;75.70;37.40;;;;;;;-0.64;71.85;98712.64;208873;1316;142873;-68
2022/01/09 16:30:47;;;;;;;68.30;34.40;;;;;;;-0.68;71.83;98715.74;208249;1316;143119;-68
2022/01/09 16:35:55;;;;;;;74.20;39.90;;;;;;;-0.74;71.59;98721.89;208908;1316;141165;-66
2022/01/09 16:41:03;;;;;;;65.80;31.50;;;;;;;-0.81;71.79;98733.81;206836;1318;141865;-70
2022/01/09 16:46:10;;;;;;;61.90;29.00;;;;;;;-0.87;71.72;98737.40;208985;1318;141135;-72
2022/01/09 16:51:20;;;;;;;55.20;29.40;;;;;;;-0.86;71.68;98741.77;209341;1317;141545;-68
2022/01/09 16:56:23;;;;;;;58.30;30.50;;;;;;;-0.82;71.90;98747.73;209219;1319;141243;-65
2022/01/09 17:01:27;;;;;;;51.00;27.80;;;;;;;-0.81;71.77;98753.50;209059;1316;140770;-65
2022/01/09 17:06:31;;;;;;;49.60;26.50;;;;;;;-0.80;71.67;98751.01;209076;1317;141268;-66
2022/01/09 17:11:35;;;;;;;51.70;29.20;;;;;;;-0.83;71.76;98750.01;208590;1318;141711;-65
2022/01/09 17:16:39;;;;;;;55.00;28.30;;;;;;;-0.85;71.79;98754.22;206995;1316;233795;-64
2022/01/09 17:22:02;;;;;;;55.20;26.80;;;;;;;-0.87;71.64;98766.39;207998;1318;141209;-65
2022/01/09 17:27:08;;;;;;;63.70;31.40;;;;;;;-0.86;71.75;98775.06;207251;1318;141020;-65
2022/01/09 17:32:16;;;;;;;61.40;33.20;;;;;;;-0.87;71.81;98790.26;208025;1318;140681;-67
2022/01/09 17:37:24;;;;;;;55.00;28.50;;;;;;;-0.87;72.00;98795.33;208533;1313;140867;-65
2022/01/09 17:42:30;;;;;;;57.50;30.70;;;;;;;-0.91;72.08;98799.56;207722;1317;140009;-68
2022/01/09 17:47:45;;;;;;;66.70;30.30;;;;;;;-0.97;72.17;98805.97;207178;1317;140699;-67
2022/01/09 17:52:50;;;;;;;64.10;30.60;;;;;;;-1.05;72.09;98810.51;208080;1316;140620;-70
2022/01/09 17:57:55;;;;;;;62.90;32.00;;;;;;;-1.14;72.18;98815.73;207215;1316;141516;-72
2022/01/09 18:03:02;;;;;;;56.20;30.90;;;;;;;-1.20;72.20;98818.27;206799;1316;141349;-68
2022/01/09 18:08:12;;;;;;;52.80;27.70;;;;;;;-1.26;72.20;98825.25;206541;1318;141032;-67
2022/01/09 18:13:21;;;;;;;54.90;28.80;;;;;;;-1.25;72.26;98829.40;207179;1316;141348;-67
2022/01/09 18:18:29;;;;;;;62.40;30.90;;;;;;;-1.23;72.39;98833.98;207646;1316;141434;-67
2022/01/09 18:23:35;;;;;;;36.30;19.20;;;;;;;-1.23;72.42;98833.77;206885;1316;139725;-67
2022/01/09 18:28:55;;;;;;;47.70;24.30;;;;;;;-1.26;72.53;98836.44;208473;1318;140135;-67
2022/01/09 18:34:01;;;;;;;54.60;26.90;;;;;;;-1.31;72.63;98846.29;207815;1315;141168;-66
2022/01/09 18:39:06;;;;;;;52.90;26.00;;;;;;;-1.36;72.63;98850.29;206980;1316;141531;-66
2022/01/09 18:44:44;;;;;;;;;;;;;;;;;;;;;
2022/01/09 18:49:52;;;;;;;50.20;24.40;;;;;;;-1.37;72.66;98854.61;209168;1316;141811;-67
2022/01/09 18:54:59;;;;;;;;;;;;;;;-1.32;72.77;98860.32;207002;1316;142435;-67
2022/01/09 19:00:09;;;;;;;65.00;31.70;;;;;;;-1.32;72.67;98862.21;209780;1316;125983;-68
2022/01/09 19:05:37;;;;;;;68.00;33.50;;;;;;;-1.33;72.84;98865.42;209494;1318;139899;-68
2022/01/09 19:11:00;;;;;;;56.60;26.20;;;;;;;-1.33;72.59;98879.29;209619;1316;141668;-67
2022/01/09 19:16:07;;;;;;;72.60;31.10;;;;;;;-1.35;72.66;98887.98;208569;1318;140933;-67
2022/01/09 19:21:29;;;;;;;56.40;26.20;;;;;;;-1.39;72.82;98889.21;208552;1318;141449;-67
2022/01/09 19:26:35;;;;;;;54.90;26.80;;;;;;;-1.43;72.58;98895.23;208607;1316;140144;-68
2022/01/09 19:31:42;;;;;;;52.10;27.80;;;;;;;-1.40;72.65;98899.38;206828;1316;141301;-67
2022/01/09 19:36:55;;;;;;;53.40;26.10;;;;;;;-1.41;72.77;98897.07;207639;1316;140867;-67
2022/01/09 19:41:59;;;;;;;49.00;25.90;;;;;;;-1.42;72.84;98902.89;207818;1316;140223;-67
2022/01/09 19:47:02;;;;;;;41.60;21.60;;;;;;;-1.46;72.76;98905.19;207424;1315;139978;-64
2022/01/09 19:52:11;;;;;;;49.20;24.70;;;;;;;-1.53;72.91;98910.02;208632;1315;140133;-65
2022/01/09 19:57:17;;;;;;;49.00;26.30;;;;;;;-1.58;72.96;98917.00;207838;1318;139813;-65
2022/01/09 20:02:22;;;;;;;45.80;26.60;;;;;;;-1.61;73.03;98920.76;206756;1316;140822;-65
2022/01/09 20:07:30;;;;;;;50.50;25.30;;;;;;;-1.67;72.92;98923.80;207431;1315;141199;-65
2022/01/09 20:12:40;;;;;;;61.60;27.40;;;;;;;-1.66;72.81;98926.67;207658;1315;140970;-65
2022/01/09 20:17:47;;;;;;;53.20;28.20;;;;;;;-1.66;72.93;98932.91;208435;1316;140714;-65
2022/01/09 20:22:59;;;;;;;52.40;30.60;;;;;;;-1.65;73.03;98938.59;207832;1316;139531;-64
2022/01/09 20:28:08;;;;;;;55.50;28.50;;;;;;;-1.66;73.10;98948.10;207816;1315;140604;-64
2022/01/09 20:33:27;;;;;;;57.80;29.60;;;;;;;-1.72;73.19;98951.34;208087;1316;140911;-65
2022/01/09 20:38:37;;;;;;;56.50;28.90;;;;;;;-1.77;73.19;98955.58;208871;1316;141536;-65
2022/01/09 20:43:41;;;;;;;44.90;23.50;;;;;;;-1.83;73.17;98969.67;207071;1315;140206;-64
2022/01/09 20:48:45;;;;;;;54.60;25.80;;;;;;;-1.90;72.99;98970.72;208240;1316;140796;-64
2022/01/09 20:54:01;;;;;;;59.70;29.00;;;;;;;-1.89;73.08;98978.73;206956;1316;140065;-64
2022/01/09 20:59:07;;;;;;;69.00;29.90;;;;;;;-1.85;73.10;98992.99;208402;1318;140593;-64
2022/01/09 21:04:13;;;;;;;63.40;30.70;;;;;;;-1.89;73.07;99005.58;208869;1313;141253;-67
2022/01/09 21:09:24;;;;;;;59.30;30.20;;;;;;;-1.89;72.99;99008.17;208744;1315;140672;-67
2022/01/09 21:14:29;;;;;;;60.00;31.70;;;;;;;-1.94;72.96;99016.38;208030;1318;139415;-67
2022/01/09 21:19:35;;;;;;;54.70;29.00;;;;;;;-2.02;72.81;99020.77;209597;1318;140045;-67
2022/01/09 21:24:44;;;;;;;55.20;28.30;;;;;;;-2.10;72.69;99020.67;206890;1316;139915;-67
2022/01/09 21:29:47;;;;;;;64.10;30.80;;;;;;;-2.15;72.70;99026.81;209259;1317;141694;-67
2022/01/09 21:34:49;;;;;;;72.30;33.00;;;;;;;-2.17;72.75;99036.66;207866;1316;140879;-68
2022/01/09 21:40:10;;;;;;;59.20;32.20;;;;;;;-2.18;73.05;99040.02;207923;1317;139441;-67
2022/01/09 21:45:17;;;;;;;65.80;33.90;;;;;;;-2.22;73.12;99045.34;207380;1318;140469;-67
2022/01/09 21:50:27;;;;;;;53.60;30.30;;;;;;;-2.30;73.13;99052.16;207667;1316;139802;-67
2022/01/09 21:55:35;;;;;;;56.90;30.20;;;;;;;-2.40;73.10;99054.80;207202;1318;461551;-67
2022/01/09 22:00:47;;;;;;;59.00;32.10;;;;;;;-2.46;73.18;99068.50;208865;1316;141094;-64
2022/01/09 22:06:04;;;;;;;74.70;36.80;;;;;;;-2.50;73.25;99074.02;207131;1316;139773;-66
2022/01/09 22:11:20;;;;;;;76.20;35.40;;;;;;;-2.55;73.34;99084.24;207854;1317;140924;-67
2022/01/09 22:16:26;;;;;;;70.30;36.10;;;;;;;-2.57;73.17;99084.48;207903;1315;141777;-66
2022/01/09 22:21:29;;;;;;;65.90;34.50;;;;;;;-2.58;73.35;99094.34;207058;1318;140257;-66
2022/01/09 22:26:35;;;;;;;71.20;33.70;;;;;;;-2.60;73.61;99101.51;208179;1316;142933;-66
2022/01/09 22:31:38;;;;;;;61.00;32.00;;;;;;;-2.62;73.70;99108.84;207923;1316;140099;-64
2022/01/09 22:36:46;;;;;;;68.90;33.60;;;;;;;-2.62;73.70;99110.09;207518;1315;140749;-65
2022/01/09 22:42:08;;;;;;;;;;;;;;;;;;;;;
2022/01/09 22:47:21;;;;;;;60.00;30.70;;;;;;;-2.76;73.81;99123.08;208123;1316;126084;-65
2022/01/09 22:52:36;;;;;;;60.30;30.90;;;;;;;-2.82;73.63;99133.34;207625;1317;141355;-64
2022/01/09 22:57:43;;;;;;;60.80;26.90;;;;;;;-2.85;73.78;99138.39;207490;1318;141517;-64
2022/01/09 23:02:54;;;;;;;64.70;33.20;;;;;;;-2.90;73.84;99150.90;206996;1316;139581;-64
2022/01/09 23:07:58;;;;;;;83.40;32.70;;;;;;;-2.93;73.56;99154.64;208816;1315;141672;-64
2022/01/09 23:13:02;;;;;;;62.90;33.10;;;;;;;-2.92;73.76;99158.73;208028;1316;141018;-64
2022/01/09 23:18:05;;;;;;;79.90;31.60;;;;;;;-2.88;73.85;99164.40;208821;1315;139699;-65
2022/01/09 23:23:08;;;;;;;72.30;32.30;;;;;;;-2.89;73.84;99170.01;209286;1319;139529;-64
2022/01/09 23:28:11;;;;;;;75.40;34.30;;;;;;;-2.96;73.82;99172.34;208303;1316;140857;-64